LVCTT SADF-SULS
Flight info
| Callsign | LVCTT |
|---|---|
| Flight time | 0h 39m |
| Altitude | 19000 |
| Route | DORVO A305 CRR |
| Aircraft | B350/L-SBGRW/S |
Departure
| Time | 2026-04-30 20:50 |
|---|---|
| Airport | San Fernando Airport (SADF) |
Arrival
| Time | 2026-04-30 21:29 |
|---|---|
| Airport | Capitan Corbeta CA Curbelo International Airport (SULS) |
| Time | Latitude | Longitude | Altitude | Speed | Heading |
|---|---|---|---|---|---|
| 2026-04-30 20:22 | -34.45576 | -58.58435 | 23 ft | 0 kts | 197° |
| 2026-04-30 20:45 | -34.45577 | -58.58443 | 23 ft | 6 kts | 318° |
| 2026-04-30 20:45 | -34.45547 | -58.58474 | 23 ft | 6 kts | 259° |
| 2026-04-30 20:45 | -34.45566 | -58.58526 | 23 ft | 8 kts | 243° |
| 2026-04-30 20:46 | -34.45653 | -58.58727 | 28 ft | 10 kts | 242° |
| 2026-04-30 20:46 | -34.45686 | -58.58804 | 26 ft | 11 kts | 242° |
| 2026-04-30 20:47 | -34.45756 | -58.58968 | 25 ft | 11 kts | 241° |
| 2026-04-30 20:47 | -34.45793 | -58.59054 | 23 ft | 12 kts | 243° |
| 2026-04-30 20:48 | -34.45870 | -58.59232 | 27 ft | 13 kts | 243° |
| 2026-04-30 20:48 | -34.45920 | -58.59350 | 24 ft | 18 kts | 243° |
| 2026-04-30 20:48 | -34.45967 | -58.59459 | 24 ft | 13 kts | 242° |
| 2026-04-30 20:48 | -34.46002 | -58.59537 | 26 ft | 8 kts | 242° |
| 2026-04-30 20:49 | -34.46027 | -58.59600 | 24 ft | 9 kts | 250° |
| 2026-04-30 20:49 | -34.46002 | -58.59674 | 25 ft | 12 kts | 324° |
| 2026-04-30 20:49 | -34.45953 | -58.59673 | 25 ft | 10 kts | 49° |
| 2026-04-30 20:50 | -34.45779 | -58.59466 | 23 ft | 76 kts | 44° |
| 2026-04-30 20:50 | -34.45245 | -58.58832 | 35 ft | 132 kts | 46° |
| 2026-04-30 20:50 | -34.44527 | -58.57951 | 300 ft | 156 kts | 47° |
| 2026-04-30 20:50 | -34.43782 | -58.57019 | 890 ft | 152 kts | 47° |
| 2026-04-30 20:51 | -34.42998 | -58.56115 | 1349 ft | 162 kts | 46° |
| 2026-04-30 20:51 | -34.41753 | -58.53764 | 2051 ft | 182 kts | 75° |
| 2026-04-30 20:51 | -34.41753 | -58.52166 | 2034 ft | 205 kts | 104° |
| 2026-04-30 20:52 | -34.42279 | -58.50542 | 2313 ft | 209 kts | 112° |
| 2026-04-30 20:52 | -34.42830 | -58.48907 | 2615 ft | 210 kts | 110° |
| 2026-04-30 20:52 | -34.43826 | -58.45572 | 3420 ft | 207 kts | 108° |
| 2026-04-30 20:53 | -34.44317 | -58.43944 | 3925 ft | 204 kts | 108° |
| 2026-04-30 20:53 | -34.44806 | -58.42323 | 4429 ft | 206 kts | 108° |
| 2026-04-30 20:53 | -34.45297 | -58.40682 | 4931 ft | 208 kts | 108° |
| 2026-04-30 20:54 | -34.46297 | -58.37349 | 5934 ft | 212 kts | 109° |
| 2026-04-30 20:54 | -34.46806 | -58.35658 | 6435 ft | 214 kts | 109° |
| 2026-04-30 20:54 | -34.47316 | -58.33955 | 6937 ft | 216 kts | 109° |
| 2026-04-30 20:55 | -34.48345 | -58.30518 | 7937 ft | 218 kts | 109° |
| 2026-04-30 20:55 | -34.48863 | -58.28788 | 8437 ft | 219 kts | 109° |
| 2026-04-30 20:55 | -34.49383 | -58.27048 | 8937 ft | 219 kts | 110° |
| 2026-04-30 20:56 | -34.50425 | -58.23564 | 9929 ft | 221 kts | 110° |
| 2026-04-30 20:56 | -34.50947 | -58.21808 | 10432 ft | 222 kts | 110° |
| 2026-04-30 20:56 | -34.52007 | -58.18252 | 11425 ft | 226 kts | 110° |
| 2026-04-30 20:57 | -34.52545 | -58.16452 | 11773 ft | 236 kts | 111° |
| 2026-04-30 20:57 | -34.53111 | -58.14538 | 12052 ft | 246 kts | 111° |
| 2026-04-30 20:57 | -34.53710 | -58.12554 | 12334 ft | 254 kts | 111° |
| 2026-04-30 20:58 | -34.54939 | -58.08415 | 12900 ft | 266 kts | 111° |
| 2026-04-30 20:58 | -34.55568 | -58.06286 | 13182 ft | 270 kts | 111° |
| 2026-04-30 20:58 | -34.56209 | -58.04126 | 13453 ft | 274 kts | 112° |
| 2026-04-30 20:58 | -34.56858 | -58.01936 | 13749 ft | 277 kts | 112° |
| 2026-04-30 20:59 | -34.58162 | -57.97486 | 14308 ft | 282 kts | 112° |
| 2026-04-30 20:59 | -34.58838 | -57.95238 | 14588 ft | 284 kts | 114° |
| 2026-04-30 21:00 | -34.60190 | -57.90703 | 15139 ft | 287 kts | 112° |
| 2026-04-30 21:00 | -34.61533 | -57.86105 | 15699 ft | 290 kts | 113° |
| 2026-04-30 21:01 | -34.62897 | -57.81503 | 16247 ft | 292 kts | 113° |
| 2026-04-30 21:01 | -34.63578 | -57.79176 | 16522 ft | 293 kts | 113° |
| 2026-04-30 21:01 | -34.64957 | -57.74485 | 17072 ft | 295 kts | 114° |
| 2026-04-30 21:02 | -34.65645 | -57.72131 | 17346 ft | 296 kts | 114° |
| 2026-04-30 21:02 | -34.66331 | -57.69773 | 17620 ft | 297 kts | 114° |
| 2026-04-30 21:02 | -34.67032 | -57.67414 | 17894 ft | 297 kts | 115° |
| 2026-04-30 21:02 | -34.67732 | -57.65043 | 18168 ft | 298 kts | 114° |
| 2026-04-30 21:03 | -34.68422 | -57.62659 | 18440 ft | 299 kts | 114° |
| 2026-04-30 21:03 | -34.69117 | -57.60270 | 18711 ft | 300 kts | 115° |
| 2026-04-30 21:03 | -34.69816 | -57.57877 | 18961 ft | 302 kts | 114° |
| 2026-04-30 21:03 | -34.70535 | -57.55430 | 18970 ft | 312 kts | 114° |
| 2026-04-30 21:04 | -34.71272 | -57.52908 | 18983 ft | 321 kts | 114° |
| 2026-04-30 21:04 | -34.71799 | -57.50265 | 18988 ft | 332 kts | 99° |
| 2026-04-30 21:04 | -34.72197 | -57.44536 | 18989 ft | 345 kts | 97° |
| 2026-04-30 21:05 | -34.72446 | -57.41620 | 18988 ft | 349 kts | 99° |
| 2026-04-30 21:05 | -34.72723 | -57.38673 | 18992 ft | 352 kts | 98° |
| 2026-04-30 21:05 | -34.72970 | -57.35713 | 18988 ft | 352 kts | 97° |
| 2026-04-30 21:05 | -34.73204 | -57.32746 | 18990 ft | 353 kts | 96° |
| 2026-04-30 21:06 | -34.73451 | -57.29775 | 18989 ft | 353 kts | 96° |
| 2026-04-30 21:06 | -34.73703 | -57.26803 | 18992 ft | 353 kts | 96° |
| 2026-04-30 21:06 | -34.73945 | -57.23875 | 18988 ft | 353 kts | 96° |
| 2026-04-30 21:06 | -34.74186 | -57.20904 | 18989 ft | 353 kts | 96° |
| 2026-04-30 21:07 | -34.74430 | -57.17932 | 18990 ft | 353 kts | 96° |
| 2026-04-30 21:07 | -34.74675 | -57.14960 | 18989 ft | 353 kts | 96° |
| 2026-04-30 21:07 | -34.74916 | -57.11987 | 18991 ft | 353 kts | 96° |
| 2026-04-30 21:07 | -34.75158 | -57.09009 | 18994 ft | 353 kts | 96° |
| 2026-04-30 21:08 | -34.75399 | -57.06037 | 18994 ft | 353 kts | 96° |
| 2026-04-30 21:08 | -34.75641 | -57.03059 | 18995 ft | 353 kts | 96° |
| 2026-04-30 21:08 | -34.75881 | -57.00082 | 18995 ft | 354 kts | 96° |
| 2026-04-30 21:08 | -34.76118 | -56.97108 | 18996 ft | 354 kts | 96° |
| 2026-04-30 21:09 | -34.76358 | -56.94119 | 18996 ft | 354 kts | 96° |
| 2026-04-30 21:09 | -34.76597 | -56.91138 | 18997 ft | 354 kts | 96° |
| 2026-04-30 21:09 | -34.76834 | -56.88153 | 18997 ft | 354 kts | 96° |
| 2026-04-30 21:09 | -34.77068 | -56.85211 | 18997 ft | 354 kts | 96° |
| 2026-04-30 21:10 | -34.77307 | -56.82194 | 18997 ft | 354 kts | 96° |
| 2026-04-30 21:10 | -34.77540 | -56.79216 | 18998 ft | 354 kts | 96° |
| 2026-04-30 21:10 | -34.77772 | -56.76272 | 18998 ft | 354 kts | 96° |
| 2026-04-30 21:10 | -34.78007 | -56.73288 | 18998 ft | 354 kts | 96° |
| 2026-04-30 21:11 | -34.78240 | -56.70298 | 18998 ft | 354 kts | 96° |
| 2026-04-30 21:11 | -34.78470 | -56.67310 | 18998 ft | 354 kts | 96° |
| 2026-04-30 21:11 | -34.78697 | -56.64326 | 18998 ft | 354 kts | 96° |
| 2026-04-30 21:11 | -34.78926 | -56.61343 | 18998 ft | 354 kts | 96° |
| 2026-04-30 21:12 | -34.79156 | -56.58359 | 18998 ft | 354 kts | 96° |
| 2026-04-30 21:12 | -34.79379 | -56.55375 | 18998 ft | 354 kts | 96° |
| 2026-04-30 21:12 | -34.79606 | -56.52391 | 18998 ft | 354 kts | 96° |
| 2026-04-30 21:12 | -34.79832 | -56.49405 | 18998 ft | 354 kts | 96° |
| 2026-04-30 21:13 | -34.80056 | -56.46418 | 18998 ft | 354 kts | 96° |
| 2026-04-30 21:13 | -34.80280 | -56.43432 | 18998 ft | 354 kts | 96° |
| 2026-04-30 21:13 | -34.80505 | -56.40442 | 18998 ft | 354 kts | 96° |
| 2026-04-30 21:13 | -34.80728 | -56.37457 | 18999 ft | 355 kts | 96° |
| 2026-04-30 21:14 | -34.80949 | -56.34466 | 18999 ft | 355 kts | 96° |
| 2026-04-30 21:14 | -34.81169 | -56.31478 | 18999 ft | 355 kts | 96° |
| 2026-04-30 21:14 | -34.81390 | -56.28487 | 18999 ft | 355 kts | 96° |
| 2026-04-30 21:14 | -34.81611 | -56.25498 | 18998 ft | 355 kts | 96° |
| 2026-04-30 21:15 | -34.81833 | -56.22501 | 18999 ft | 355 kts | 96° |
| 2026-04-30 21:15 | -34.82048 | -56.19509 | 18999 ft | 354 kts | 96° |
| 2026-04-30 21:15 | -34.82262 | -56.16560 | 18999 ft | 354 kts | 96° |
| 2026-04-30 21:15 | -34.82480 | -56.13566 | 18999 ft | 355 kts | 96° |
| 2026-04-30 21:16 | -34.82697 | -56.10579 | 18999 ft | 355 kts | 96° |
| 2026-04-30 21:16 | -34.82911 | -56.07584 | 19010 ft | 354 kts | 96° |
| 2026-04-30 21:16 | -34.83125 | -56.04603 | 19010 ft | 354 kts | 96° |
| 2026-04-30 21:16 | -34.83267 | -56.02586 | 19010 ft | 354 kts | 95° |
| 2026-04-30 21:17 | -34.83343 | -55.99595 | 19009 ft | 354 kts | 92° |
| 2026-04-30 21:17 | -34.83475 | -55.95631 | 18973 ft | 356 kts | 94° |
| 2026-04-30 21:17 | -34.83552 | -55.93620 | 18797 ft | 361 kts | 93° |
| 2026-04-30 21:17 | -34.83671 | -55.89468 | 18367 ft | 368 kts | 93° |
| 2026-04-30 21:18 | -34.83724 | -55.87437 | 18152 ft | 357 kts | 93° |
| 2026-04-30 21:18 | -34.83982 | -55.84509 | 17782 ft | 340 kts | 108° |
| 2026-04-30 21:18 | -34.84822 | -55.81923 | 17262 ft | 321 kts | 124° |
| 2026-04-30 21:18 | -34.85908 | -55.79598 | 16710 ft | 311 kts | 125° |
| 2026-04-30 21:19 | -34.86865 | -55.77274 | 16320 ft | 300 kts | 119° |
| 2026-04-30 21:19 | -34.87637 | -55.74971 | 16034 ft | 287 kts | 116° |
| 2026-04-30 21:19 | -34.88404 | -55.72735 | 15751 ft | 285 kts | 119° |
| 2026-04-30 21:19 | -34.89214 | -55.70538 | 15468 ft | 283 kts | 119° |
| 2026-04-30 21:20 | -34.89969 | -55.68322 | 15186 ft | 284 kts | 112° |
| 2026-04-30 21:20 | -34.90503 | -55.66033 | 14911 ft | 287 kts | 108° |
| 2026-04-30 21:20 | -34.90997 | -55.63637 | 14585 ft | 296 kts | 108° |
| 2026-04-30 21:20 | -34.91534 | -55.61187 | 14237 ft | 301 kts | 109° |
| 2026-04-30 21:21 | -34.92099 | -55.58713 | 13893 ft | 305 kts | 109° |
| 2026-04-30 21:21 | -34.92659 | -55.56210 | 13549 ft | 307 kts | 108° |
| 2026-04-30 21:21 | -34.93772 | -55.51170 | 12861 ft | 307 kts | 108° |
| 2026-04-30 21:22 | -34.94330 | -55.48653 | 12516 ft | 307 kts | 108° |
| 2026-04-30 21:22 | -34.95987 | -55.41157 | 11484 ft | 310 kts | 108° |
| 2026-04-30 21:23 | -34.96538 | -55.38670 | 11139 ft | 296 kts | 107° |
| 2026-04-30 21:23 | -34.97057 | -55.36313 | 10791 ft | 280 kts | 107° |
| 2026-04-30 21:23 | -34.98025 | -55.31909 | 9618 ft | 265 kts | 107° |
| 2026-04-30 21:24 | -34.98502 | -55.29750 | 8927 ft | 263 kts | 107° |
| 2026-04-30 21:24 | -34.98974 | -55.27606 | 8227 ft | 260 kts | 106° |
| 2026-04-30 21:24 | -34.99439 | -55.25491 | 7527 ft | 257 kts | 106° |
| 2026-04-30 21:24 | -34.99891 | -55.23421 | 6840 ft | 254 kts | 106° |
| 2026-04-30 21:25 | -35.00796 | -55.19294 | 5445 ft | 249 kts | 105° |
| 2026-04-30 21:25 | -35.01238 | -55.17267 | 4749 ft | 246 kts | 104° |
| 2026-04-30 21:25 | -35.01676 | -55.15263 | 4052 ft | 243 kts | 104° |
| 2026-04-30 21:26 | -35.01543 | -55.11348 | 2658 ft | 231 kts | 61° |
| 2026-04-30 21:26 | -35.00549 | -55.09860 | 1970 ft | 226 kts | 38° |
| 2026-04-30 21:27 | -34.97814 | -55.08778 | 1685 ft | 206 kts | 356° |
| 2026-04-30 21:27 | -34.96356 | -55.08882 | 1684 ft | 214 kts | 356° |
| 2026-04-30 21:27 | -34.94852 | -55.08953 | 1683 ft | 215 kts | 356° |
| 2026-04-30 21:28 | -34.92083 | -55.09092 | 1674 ft | 189 kts | 356° |
| 2026-04-30 21:28 | -34.90825 | -55.09167 | 1451 ft | 173 kts | 355° |
| 2026-04-30 21:28 | -34.88624 | -55.09279 | 615 ft | 148 kts | 359° |
| 2026-04-30 21:29 | -34.87656 | -55.09321 | 408 ft | 136 kts | 357° |
| 2026-04-30 21:29 | -34.85371 | -55.09403 | 99 ft | 15 kts | 5° |
| 2026-04-30 21:30 | -34.85533 | -55.09402 | 99 ft | 21 kts | 176° |
| 2026-04-30 21:31 | -34.85767 | -55.09711 | 99 ft | 23 kts | 252° |
| 2026-04-30 21:31 | -34.85881 | -55.09814 | 99 ft | 10 kts | 100° |
| 2026-04-30 21:32 | -34.85923 | -55.09734 | 99 ft | 4 kts | 227° |
| 2026-04-30 21:32 | -34.85925 | -55.09758 | 99 ft | 0 kts | 260° |
| 2026-04-30 21:32 | -34.85927 | -55.09765 | 99 ft | 0 kts | 255° |